createdAt,value
2019-05-01T00:04:12.883Z,8.40
2019-05-01T00:09:17.515Z,8.30
2019-05-01T00:14:21.851Z,8.30
2019-05-01T00:19:25.651Z,8.30
2019-05-01T00:24:29.392Z,8.30
2019-05-01T00:29:33.188Z,8.30
2019-05-01T00:34:37.150Z,8.30
2019-05-01T00:39:41.147Z,8.30
2019-05-01T00:44:45.258Z,8.40
2019-05-01T00:49:49.206Z,8.40
2019-05-01T00:54:55.447Z,8.40
2019-05-01T01:00:18.575Z,8.40
2019-05-01T01:05:22.671Z,8.50
2019-05-01T01:10:26.638Z,8.50
2019-05-01T01:15:30.650Z,8.50
2019-05-01T01:20:34.606Z,8.50
2019-05-01T01:25:38.694Z,8.50
2019-05-01T01:30:55.130Z,8.60
2019-05-01T01:35:48.873Z,8.60
2019-05-01T01:40:53.091Z,8.60
2019-05-01T01:45:57.698Z,8.60
2019-05-01T01:51:01.712Z,8.70
2019-05-01T01:56:06.373Z,8.70
2019-05-01T02:01:24.198Z,8.70
2019-05-01T02:06:28.029Z,8.70
2019-05-01T02:11:32.405Z,8.70
2019-05-01T02:16:36.370Z,8.80
2019-05-01T02:21:40.301Z,8.90
2019-05-01T02:26:47.184Z,8.90
2019-05-01T02:31:54.051Z,8.80
2019-05-01T02:37:00.041Z,8.90
2019-05-01T02:42:04.893Z,8.80
2019-05-01T02:47:12.352Z,8.80
2019-05-01T02:52:19.879Z,8.80
2019-05-01T02:57:26.020Z,8.80
2019-05-01T03:02:32.051Z,8.50
2019-05-01T03:07:38.531Z,8.30
2019-05-01T03:12:45.367Z,8.00
2019-05-01T03:17:59.234Z,8.20
2019-05-01T03:23:37.832Z,8.20
2019-05-01T03:28:42.131Z,8.20
2019-05-01T03:33:46.729Z,8.20
2019-05-01T03:38:51.306Z,8.40
2019-05-01T03:43:55.877Z,8.60
2019-05-01T03:49:00.879Z,8.80
2019-05-01T03:54:05.275Z,9.00
2019-05-01T03:59:10.035Z,9.10
2019-05-01T04:04:19.450Z,9.30
2019-05-01T04:09:23.597Z,9.60
2019-05-01T04:14:27.783Z,9.70
2019-05-01T04:19:31.920Z,9.80
2019-05-01T04:24:37.015Z,10.00
2019-05-01T04:29:57.234Z,10.10
2019-05-01T04:35:24.768Z,10.20
2019-05-01T04:40:29.277Z,10.30
2019-05-01T04:45:34.234Z,10.50
2019-05-01T04:50:38.312Z,10.60
2019-05-01T04:55:44.085Z,10.70
2019-05-01T05:00:48.789Z,10.70
2019-05-01T05:05:53.049Z,10.80
2019-05-01T05:10:58.618Z,10.80
2019-05-01T05:16:23.829Z,10.90
2019-05-01T05:21:28.078Z,11.20
2019-05-01T05:26:31.965Z,11.80
2019-05-01T05:31:37.048Z,12.30
2019-05-01T05:36:42.741Z,11.90
2019-05-01T05:41:48.457Z,12.00
2019-05-01T05:46:52.320Z,12.60
2019-05-01T05:52:24.073Z,12.00
2019-05-01T05:57:38.978Z,11.70
2019-05-01T06:03:07.687Z,11.60
2019-05-01T06:08:20.079Z,11.60
2019-05-01T06:13:43.288Z,11.60
2019-05-01T06:19:09.665Z,11.50
2019-05-01T06:24:21.780Z,11.60
2019-05-01T06:29:26.384Z,11.80
2019-05-01T06:34:30.697Z,12.10
2019-05-01T06:39:42.726Z,12.40
2019-05-01T06:44:52.941Z,12.50
2019-05-01T06:50:22.890Z,12.00
2019-05-01T06:55:28.949Z,12.10
2019-05-01T07:00:32.995Z,12.30
2019-05-01T07:05:37.546Z,12.80
2019-05-01T07:10:44.293Z,12.50
2019-05-01T07:15:47.718Z,12.90
2019-05-01T07:20:53.533Z,13.70
2019-05-01T07:25:57.736Z,13.70
2019-05-01T07:31:08.608Z,13.20
2019-05-01T07:36:15.216Z,14.10
2019-05-01T07:41:18.986Z,15.00
2019-05-01T07:46:48.919Z,15.40
2019-05-01T07:51:53.339Z,14.30
2019-05-01T07:56:58.793Z,14.00
2019-05-01T08:02:07.442Z,14.40
2019-05-01T08:07:11.573Z,14.20
2019-05-01T08:12:18.858Z,14.20
2019-05-01T08:17:22.696Z,14.30
2019-05-01T08:22:32.161Z,13.90
2019-05-01T08:27:56.343Z,13.80
2019-05-01T08:33:23.078Z,13.90
2019-05-01T08:38:29.870Z,13.70
2019-05-01T08:43:33.380Z,14.30
2019-05-01T08:49:06.743Z,14.90
2019-05-01T08:54:10.096Z,14.10
2019-05-01T08:59:14.671Z,14.20
2019-05-01T09:04:18.917Z,14.00
2019-05-01T09:09:23.786Z,13.60
2019-05-01T09:14:29.853Z,13.20
2019-05-01T09:19:33.760Z,13.10
2019-05-01T09:24:37.884Z,13.50
2019-05-01T09:29:46.932Z,14.00
2019-05-01T09:34:50.690Z,14.90
2019-05-01T09:39:54.689Z,15.80
2019-05-01T09:44:58.489Z,15.50
2019-05-01T09:50:02.680Z,16.30
2019-05-01T09:55:24.940Z,16.10
2019-05-01T10:00:31.138Z,16.80
2019-05-01T10:05:38.007Z,15.80
2019-05-01T10:10:40.707Z,15.90
2019-05-01T10:15:44.597Z,16.40
2019-05-01T10:20:48.927Z,17.00
2019-05-01T10:25:55.801Z,17.20
2019-05-01T10:31:11.894Z,17.90
2019-05-01T10:36:37.021Z,17.50
2019-05-01T10:41:46.145Z,17.20
2019-05-01T10:46:47.623Z,17.10
2019-05-01T10:51:51.421Z,16.90
2019-05-01T10:56:58.904Z,16.50
2019-05-01T11:02:02.422Z,16.90
2019-05-01T11:07:06.209Z,16.80
2019-05-01T11:12:10.369Z,17.30
2019-05-01T11:17:14.177Z,16.60
2019-05-01T11:22:18.626Z,17.10
2019-05-01T11:27:24.824Z,18.00
2019-05-01T11:32:50.566Z,18.50
2019-05-01T11:38:06.398Z,18.60
2019-05-01T11:43:12.302Z,18.50
2019-05-01T11:48:16.183Z,18.50
2019-05-01T11:53:22.322Z,18.10
2019-05-01T11:58:26.190Z,18.00
2019-05-01T12:03:29.878Z,17.30
2019-05-01T12:08:34.141Z,17.20
2019-05-01T12:13:43.954Z,17.10
2019-05-01T12:18:43.481Z,17.70
2019-05-01T12:23:47.181Z,18.30
2019-05-01T12:28:51.035Z,18.80
2019-05-01T12:33:55.049Z,18.80
2019-05-01T12:38:58.960Z,18.80
2019-05-01T12:44:03.012Z,19.20
2019-05-01T12:49:06.833Z,19.40
2019-05-01T12:54:28.790Z,19.80
2019-05-01T12:59:32.913Z,19.80
2019-05-01T13:04:37.054Z,19.60
2019-05-01T13:09:40.845Z,19.60
2019-05-01T13:14:44.641Z,19.60
2019-05-01T13:19:48.406Z,18.60
2019-05-01T13:24:52.570Z,19.10
2019-05-01T13:30:02.171Z,19.50
2019-05-01T13:35:06.561Z,18.30
2019-05-01T13:40:10.850Z,17.60
2019-05-01T13:45:15.792Z,17.70
2019-05-01T13:50:20.723Z,18.00
2019-05-01T13:55:26.105Z,18.40
2019-05-01T14:00:30.939Z,18.40
2019-05-01T14:05:35.644Z,18.40
2019-05-01T14:10:41.061Z,17.80
2019-05-01T14:15:45.010Z,17.30
2019-05-01T14:21:05.745Z,17.90
2019-05-01T14:26:11.328Z,16.60
2019-05-01T14:31:15.580Z,16.60
2019-05-01T14:36:20.300Z,16.60
2019-05-01T14:41:25.714Z,16.70
2019-05-01T14:46:30.241Z,17.30
2019-05-01T14:51:34.871Z,17.50
2019-05-01T14:56:38.976Z,17.40
2019-05-01T15:01:43.496Z,16.90
2019-05-01T15:06:48.114Z,16.50
2019-05-01T15:11:53.220Z,16.50
2019-05-01T15:17:04.797Z,16.80
2019-05-01T15:22:10.201Z,16.90
2019-05-01T15:27:14.862Z,16.70
2019-05-01T15:32:20.221Z,17.00
2019-05-01T15:37:24.319Z,17.50
2019-05-01T15:42:51.463Z,17.90
2019-05-01T15:47:55.549Z,17.80
2019-05-01T15:52:59.293Z,17.70
2019-05-01T15:58:03.342Z,16.70
2019-05-01T16:03:07.043Z,15.90
2019-05-01T16:08:10.760Z,15.70
2019-05-01T16:13:14.756Z,15.70
2019-05-01T16:18:19.204Z,15.90
2019-05-01T16:23:25.125Z,15.70
2019-05-01T16:28:29.280Z,15.50
2019-05-01T16:33:33.348Z,15.60
2019-05-01T16:38:49.543Z,15.50
2019-05-01T16:43:53.783Z,15.30
2019-05-01T16:48:58.523Z,15.20
2019-05-01T16:54:02.719Z,14.90
2019-05-01T16:59:09.085Z,14.70
2019-05-01T17:04:38.246Z,14.60
2019-05-01T17:09:58.077Z,14.20
2019-05-01T17:15:02.947Z,13.90
2019-05-01T17:20:32.614Z,13.60
2019-05-01T17:25:37.502Z,13.60
2019-05-01T17:30:50.867Z,13.50
2019-05-01T17:35:55.692Z,13.40
2019-05-01T17:40:59.670Z,13.30
2019-05-01T17:46:05.837Z,13.20
2019-05-01T17:51:09.575Z,13.10
2019-05-01T17:56:15.641Z,12.80
2019-05-01T18:01:34.472Z,12.60
2019-05-01T18:06:41.895Z,12.40
2019-05-01T18:11:47.464Z,12.30
2019-05-01T18:16:55.089Z,12.10
2019-05-01T18:22:09.219Z,12.00
2019-05-01T18:27:38.518Z,11.80
2019-05-01T18:32:47.581Z,11.50
2019-05-01T18:38:11.496Z,11.40
2019-05-01T18:43:14.566Z,11.20
2019-05-01T18:48:18.990Z,11.00
2019-05-01T18:53:22.768Z,10.80
2019-05-01T18:58:26.705Z,10.70
2019-05-01T19:03:30.646Z,10.50
2019-05-01T19:08:35.132Z,10.30
2019-05-01T19:13:39.029Z,10.20
2019-05-01T19:18:43.086Z,10.20
2019-05-01T19:23:47.897Z,10.20
2019-05-01T19:28:52.417Z,10.10
2019-05-01T19:33:56.551Z,10.30
2019-05-01T19:39:00.452Z,10.10
2019-05-01T19:44:04.964Z,10.10
2019-05-01T19:49:09.015Z,10.00
2019-05-01T19:54:14.005Z,9.80
2019-05-01T19:59:17.845Z,9.70
2019-05-01T20:04:21.676Z,9.60
2019-05-01T20:09:26.241Z,9.50
2019-05-01T20:14:30.063Z,9.50
2019-05-01T20:19:33.927Z,9.40
2019-05-01T20:24:39.920Z,9.30
2019-05-01T20:29:44.793Z,9.20
2019-05-01T20:34:52.692Z,9.10
2019-05-01T20:39:55.600Z,9.00
2019-05-01T20:45:05.477Z,8.90
2019-05-01T20:50:05.529Z,8.70
2019-05-01T20:55:10.115Z,8.60
2019-05-01T21:00:16.518Z,8.50
2019-05-01T21:05:26.249Z,8.40
2019-05-01T21:10:35.776Z,8.20
2019-05-01T21:15:40.534Z,8.00
2019-05-01T21:20:44.727Z,7.90
2019-05-01T21:25:49.299Z,7.80
2019-05-01T21:30:54.353Z,7.80
2019-05-01T21:36:04.909Z,7.90
2019-05-01T21:41:05.528Z,7.80
2019-05-01T21:46:12.447Z,7.70
2019-05-01T21:51:15.866Z,7.80
2019-05-01T21:56:20.597Z,7.70
2019-05-01T22:01:24.370Z,7.60
2019-05-01T22:06:28.185Z,7.50
2019-05-01T22:11:32.992Z,7.60
2019-05-01T22:16:37.641Z,7.50
2019-05-01T22:21:58.531Z,7.50
2019-05-01T22:27:06.721Z,7.30
2019-05-01T22:32:34.117Z,7.00
2019-05-01T22:37:38.253Z,7.10
2019-05-01T22:42:42.098Z,7.10
2019-05-01T22:47:46.005Z,7.00
2019-05-01T22:52:51.295Z,6.90
2019-05-01T22:57:56.531Z,6.80
2019-05-01T23:03:05.471Z,6.70
2019-05-01T23:08:07.958Z,6.60
2019-05-01T23:13:12.303Z,6.50
2019-05-01T23:18:17.376Z,6.30
2019-05-01T23:23:21.370Z,6.10
2019-05-01T23:28:25.817Z,6.00
2019-05-01T23:33:29.777Z,6.00
2019-05-01T23:38:34.165Z,5.80
2019-05-01T23:43:37.893Z,5.80
2019-05-01T23:48:41.602Z,5.80
2019-05-01T23:53:48.175Z,5.90
2019-05-01T23:58:51.270Z,6.00
